Time;durP1;ratioP1;P1;durP2;ratioP2;P2;SDS_P1;SDS_P2;PMS_P1;PMS_P2;Temp;Humidity;BMP_temperature;BMP_pressure;BME280_temperature;BME280_humidity;BME280_pressure;Samples;Min_cycle;Max_cycle;Signal;HPM_P1;HPM_P2
2022/10/01 00:01:14;;;;;;;16.40;12.80;;;12.80;99.90;;;;;;5036931;28;20120;-81
2022/10/01 00:03:40;;;;;;;15.68;12.38;;;12.80;99.90;;;;;;5036324;28;20052;-81
2022/10/01 00:06:10;;;;;;;16.63;12.93;;;12.80;99.90;;;;;;5036998;28;20098;-82
2022/10/01 00:08:38;;;;;;;19.08;13.10;;;12.80;99.90;;;;;;5036416;28;20202;-81
2022/10/01 00:11:13;;;;;;;17.25;12.98;;;12.80;99.90;;;;;;5053873;28;20083;-82
2022/10/01 00:13:41;;;;;;;18.30;12.85;;;12.80;99.90;;;;;;5036317;28;20051;-82
2022/10/01 00:16:10;;;;;;;14.63;12.13;;;12.80;99.90;;;;;;5054169;28;20021;-83
2022/10/01 00:18:37;;;;;;;12.60;8.70;;;12.80;99.90;;;;;;5036344;28;20028;-82
2022/10/01 00:21:17;;;;;;;11.00;9.40;;;12.80;99.90;;;;;;5036211;28;20124;-82
2022/10/01 00:23:44;;;;;;;16.88;11.32;;;12.80;99.90;;;;;;5036427;28;20029;-82
2022/10/01 00:26:22;;;;;;;14.13;11.30;;;12.80;99.90;;;;;;5052671;28;20083;-82
2022/10/01 00:28:53;;;;;;;15.32;12.23;;;12.80;99.90;;;;;;5053962;28;20017;-82
2022/10/01 00:31:19;;;;;;;12.50;10.35;;;12.80;99.90;;;;;;5053222;28;20469;-82
2022/10/01 00:33:45;;;;;;;13.23;10.70;;;12.70;99.90;;;;;;5053854;28;20027;-82
2022/10/01 00:36:11;;;;;;;15.35;10.80;;;12.80;99.90;;;;;;5036411;28;20035;-82
2022/10/01 00:38:39;;;;;;;12.85;11.45;;;12.80;99.90;;;;;;5036244;28;20029;-83
2022/10/01 00:41:06;;;;;;;14.05;11.20;;;12.70;99.90;;;;;;5036289;28;20492;-82
2022/10/01 00:43:35;;;;;;;17.60;11.05;;;12.70;99.90;;;;;;5036260;28;20075;-82
2022/10/01 00:46:08;;;;;;;15.57;10.80;;;12.70;99.90;;;;;;5054082;28;20028;-81
2022/10/01 00:48:49;;;;;;;15.88;11.63;;;12.70;99.90;;;;;;5035962;28;20093;-82
2022/10/01 00:51:15;;;;;;;14.40;12.23;;;12.70;99.90;;;;;;5054047;28;20033;-83
2022/10/01 00:53:42;;;;;;;20.48;11.25;;;12.70;99.90;;;;;;5035585;28;20120;-83
2022/10/01 00:56:08;;;;;;;15.20;10.77;;;12.70;99.90;;;;;;5036284;28;20384;-82
2022/10/01 00:58:33;;;;;;;16.00;11.35;;;12.70;99.90;;;;;;5036137;28;20029;-82
2022/10/01 01:00:59;;;;;;;13.55;11.48;;;12.70;99.90;;;;;;5036056;28;20430;-82
2022/10/01 01:03:25;;;;;;;13.30;10.90;;;12.70;99.90;;;;;;5035842;28;20048;-82
2022/10/01 01:05:51;;;;;;;13.48;11.18;;;12.70;99.90;;;;;;5036281;28;20032;-82
2022/10/01 01:08:17;;;;;;;14.77;11.88;;;12.70;99.90;;;;;;5035675;28;20029;-83
2022/10/01 01:10:58;;;;;;;16.23;11.82;;;12.70;99.90;;;;;;5019608;28;20029;-82
2022/10/01 01:14:01;;;;;;;15.20;11.98;;;12.70;99.90;;;;;;5035937;28;20492;-82
2022/10/01 01:16:37;;;;;;;13.30;10.98;;;12.70;99.90;;;;;;5036012;28;20029;-83
2022/10/01 01:19:41;;;;;;;15.43;12.20;;;12.70;99.90;;;;;;5036050;28;20029;-83
2022/10/01 01:22:12;;;;;;;17.23;13.20;;;12.70;99.90;;;;;;4937405;29;20070;-83
2022/10/01 01:25:13;;;;;;;16.33;12.50;;;12.70;99.90;;;;;;4953360;29;20027;-83
2022/10/01 01:28:01;;;;;;;17.20;12.88;;;12.70;99.90;;;;;;5028269;28;20041;-83
2022/10/01 01:30:30;;;;;;;20.00;12.70;;;12.70;99.90;;;;;;5053468;28;20362;-82
2022/10/01 01:33:10;;;;;;;15.90;12.97;;;12.70;99.90;;;;;;5053392;28;20025;-83
2022/10/01 01:35:48;;;;;;;15.73;13.55;;;12.70;99.90;;;;;;5035960;28;20025;-83
2022/10/01 01:38:19;;;;;;;17.42;13.85;;;12.70;99.90;;;;;;5053632;28;20084;-83
2022/10/01 01:40:49;;;;;;;16.88;14.48;;;12.70;99.90;;;;;;5035605;28;20025;-83
2022/10/01 01:43:19;;;;;;;18.42;14.45;;;12.70;99.90;;;;;;5036558;28;20047;-82
2022/10/01 01:45:48;;;;;;;17.63;13.13;;;12.70;99.90;;;;;;5039221;28;20047;-82
2022/10/01 01:48:14;;;;;;;14.75;12.55;;;12.70;99.90;;;;;;5039109;28;20050;-82
2022/10/01 01:50:45;;;;;;;18.10;12.70;;;12.70;99.90;;;;;;5039165;28;20029;-83
2022/10/01 01:53:10;;;;;;;15.70;12.43;;;12.70;99.90;;;;;;5057044;28;20049;-82
2022/10/01 01:55:37;;;;;;;14.70;11.63;;;12.70;99.90;;;;;;5056871;28;20130;-84
2022/10/01 01:58:03;;;;;;;13.07;10.82;;;12.70;99.90;;;;;;5039199;28;20086;-83
2022/10/01 02:00:28;;;;;;;15.30;10.98;;;12.70;99.90;;;;;;5038971;28;20116;-82
2022/10/01 02:02:56;;;;;;;11.05;9.50;;;12.70;99.90;;;;;;5038720;28;20103;-81
2022/10/01 02:05:26;;;;;;;14.70;10.07;;;12.70;99.90;;;;;;5038740;28;20032;-83
2022/10/01 02:08:33;;;;;;;11.27;8.50;;;12.70;99.90;;;;;;5056597;28;20040;-83
2022/10/01 02:11:14;;;;;;;10.38;8.85;;;12.70;99.90;;;;;;5039165;28;20040;-82
2022/10/01 02:13:45;;;;;;;11.05;9.23;;;12.70;99.90;;;;;;5038700;28;20056;-83
2022/10/01 02:16:17;;;;;;;14.98;9.52;;;12.70;99.90;;;;;;5038961;28;20017;-84
2022/10/01 02:19:10;;;;;;;15.23;9.90;;;12.70;99.90;;;;;;5038914;28;20025;-84
2022/10/01 02:21:46;;;;;;;11.98;9.32;;;12.70;99.90;;;;;;5039075;28;20025;-84
2022/10/01 02:24:18;;;;;;;14.10;10.25;;;12.70;99.90;;;;;;5038853;28;20025;-82
2022/10/01 02:26:47;;;;;;;12.82;10.15;;;12.70;99.90;;;;;;5038478;28;20033;-83
2022/10/01 02:29:16;;;;;;;15.65;11.05;;;12.70;99.90;;;;;;5038182;28;20115;-83
2022/10/01 02:31:46;;;;;;;12.77;10.43;;;12.70;99.90;;;;;;5055986;28;20033;-82
2022/10/01 02:34:14;;;;;;;13.60;11.27;;;12.70;99.90;;;;;;5056150;28;20032;-82
2022/10/01 02:36:44;;;;;;;17.73;12.45;;;12.70;99.90;;;;;;5038953;28;20136;-83
2022/10/01 02:39:12;;;;;;;;;;;12.70;99.90;;;;;;5038593;28;20119;-83
2022/10/01 02:41:39;;;;;;;14.17;11.80;;;12.60;99.90;;;;;;5038648;28;19912;-83
2022/10/01 02:44:15;;;;;;;17.25;11.50;;;12.60;99.90;;;;;;5038225;28;20488;-82
2022/10/01 02:47:01;;;;;;;16.95;10.60;;;12.60;99.90;;;;;;5021629;28;20035;-82
2022/10/01 02:49:29;;;;;;;16.70;11.63;;;12.60;99.90;;;;;;5038050;28;20051;-82
2022/10/01 02:51:59;;;;;;;19.88;12.10;;;12.60;99.90;;;;;;5037975;28;20033;-83
2022/10/01 02:54:36;;;;;;;16.52;11.93;;;12.60;99.90;;;;;;5055502;28;20025;-84
2022/10/01 02:59:47;;;;;;;17.48;12.52;;;12.60;99.90;;;;;;5055554;28;20040;-83
2022/10/01 03:02:12;;;;;;;17.02;13.40;;;12.60;99.90;;;;;;5037723;28;20119;-82
2022/10/01 03:04:38;;;;;;;20.60;12.77;;;12.60;99.90;;;;;;5037641;28;20048;-82
2022/10/01 03:07:04;;;;;;;18.60;12.02;;;12.60;99.90;;;;;;5037919;28;20051;-83
2022/10/01 03:09:30;;;;;;;16.77;12.35;;;12.50;99.90;;;;;;5038350;28;20411;-82
2022/10/01 03:11:57;;;;;;;16.45;12.80;;;12.50;99.90;;;;;;5037583;28;20033;-83
2022/10/01 03:14:23;;;;;;;15.98;11.70;;;12.50;99.90;;;;;;5037510;28;20031;-83
2022/10/01 03:16:49;;;;;;;15.40;10.93;;;12.50;99.90;;;;;;5037602;28;20021;-81
2022/10/01 03:19:15;;;;;;;16.83;11.35;;;12.50;99.90;;;;;;5037592;28;20036;-82
2022/10/01 03:21:41;;;;;;;15.65;11.75;;;12.50;99.90;;;;;;5037307;28;20029;-83
2022/10/01 03:24:06;;;;;;;14.70;11.32;;;12.50;99.90;;;;;;5037584;28;20116;-81
2022/10/01 03:26:32;;;;;;;14.65;10.82;;;12.50;99.90;;;;;;5055319;28;20028;-82
2022/10/01 03:28:58;;;;;;;12.93;10.68;;;12.50;99.90;;;;;;5037313;28;20060;-82
2022/10/01 03:31:23;;;;;;;16.80;11.00;;;12.60;99.90;;;;;;5037092;28;20033;-82
2022/10/01 03:33:49;;;;;;;16.10;11.80;;;12.60;99.90;;;;;;5036933;28;20416;-82
2022/10/01 03:36:15;;;;;;;15.38;10.95;;;12.60;99.90;;;;;;5036929;28;20029;-82
2022/10/01 03:38:41;;;;;;;13.35;10.68;;;12.60;99.90;;;;;;5037297;28;20103;-82
2022/10/01 03:41:06;;;;;;;17.55;10.68;;;12.60;99.90;;;;;;5037305;28;20040;-82
2022/10/01 03:43:32;;;;;;;14.25;10.85;;;12.60;99.90;;;;;;5037166;28;20036;-83
2022/10/01 03:45:58;;;;;;;14.50;9.93;;;12.60;99.90;;;;;;5037172;28;20079;-83
2022/10/01 03:48:23;;;;;;;13.93;10.23;;;12.60;99.90;;;;;;5036988;28;20025;-82
2022/10/01 03:50:58;;;;;;;13.55;9.52;;;12.60;99.90;;;;;;5036817;28;20033;-82
2022/10/01 03:53:26;;;;;;;14.65;10.50;;;12.60;99.90;;;;;;5036676;28;20025;-84
2022/10/01 03:55:52;;;;;;;13.35;9.85;;;12.60;99.90;;;;;;5053409;28;20028;-83
2022/10/01 03:58:18;;;;;;;15.00;9.90;;;12.60;99.90;;;;;;5036758;28;20404;-83
2022/10/01 04:00:46;;;;;;;11.07;9.48;;;12.60;99.90;;;;;;5054482;28;20025;-83
2022/10/01 04:03:13;;;;;;;13.93;9.45;;;12.60;99.90;;;;;;5054135;28;20124;-82
2022/10/01 04:05:40;;;;;;;12.80;9.60;;;12.60;99.90;;;;;;5036448;28;20056;-83
2022/10/01 04:08:05;;;;;;;11.38;9.02;;;12.60;99.90;;;;;;5053273;28;20029;-82
2022/10/01 04:10:31;;;;;;;11.82;9.25;;;12.60;99.90;;;;;;5054439;28;20031;-82
2022/10/01 04:12:57;;;;;;;12.73;9.40;;;12.60;99.90;;;;;;5036585;28;20040;-84
2022/10/01 04:15:23;;;;;;;11.18;8.85;;;12.60;99.90;;;;;;5056239;28;20029;-83
2022/10/01 04:17:49;;;;;;;11.43;9.23;;;12.50;99.90;;;;;;5038185;28;20028;-83
2022/10/01 04:20:15;;;;;;;11.65;8.95;;;12.50;99.90;;;;;;5055143;28;20029;-84
2022/10/01 04:22:42;;;;;;;13.70;9.10;;;12.50;99.90;;;;;;5036894;28;20028;-82
2022/10/01 04:25:12;;;;;;;16.20;9.50;;;12.60;99.90;;;;;;5036327;28;20060;-83
2022/10/01 04:27:42;;;;;;;15.43;9.05;;;12.50;99.90;;;;;;5054313;28;20456;-82
2022/10/01 04:30:09;;;;;;;14.05;9.98;;;12.50;99.90;;;;;;5053875;28;20496;-82
2022/10/01 04:32:36;;;;;;;14.50;10.10;;;12.50;99.90;;;;;;5036037;28;20033;-83
2022/10/01 04:35:03;;;;;;;12.55;9.15;;;12.60;99.90;;;;;;5036539;28;20165;-82
2022/10/01 04:37:30;;;;;;;12.02;9.23;;;12.60;99.90;;;;;;5036287;28;20416;-83
2022/10/01 04:39:55;;;;;;;12.18;8.90;;;12.60;99.90;;;;;;5035758;28;20021;-82
2022/10/01 04:42:21;;;;;;;13.18;9.27;;;12.60;99.90;;;;;;5036126;28;20032;-82
2022/10/01 04:44:47;;;;;;;11.57;8.55;;;12.60;99.90;;;;;;5053516;28;20032;-82
2022/10/01 04:47:12;;;;;;;10.60;8.27;;;12.60;99.90;;;;;;5053959;28;20025;-82
2022/10/01 04:49:38;;;;;;;11.35;9.38;;;12.60;99.90;;;;;;5036064;28;20030;-83
2022/10/01 04:52:04;;;;;;;14.25;9.55;;;12.50;99.90;;;;;;5036756;28;20457;-82
2022/10/01 04:54:30;;;;;;;14.68;8.80;;;12.50;99.90;;;;;;5036214;28;20350;-83
2022/10/01 04:56:57;;;;;;;12.05;9.02;;;12.50;99.90;;;;;;5036286;28;20468;-83
2022/10/01 04:59:23;;;;;;;11.82;9.02;;;12.50;99.90;;;;;;5053945;28;20113;-82
2022/10/01 05:01:48;;;;;;;11.98;9.85;;;12.40;99.90;;;;;;5036061;28;20384;-82
2022/10/01 05:04:14;;;;;;;13.43;8.73;;;12.40;99.90;;;;;;5035677;28;20048;-82
2022/10/01 05:06:40;;;;;;;11.18;9.35;;;12.40;99.90;;;;;;5035983;28;20025;-82
2022/10/01 05:09:06;;;;;;;12.40;10.00;;;12.40;99.90;;;;;;5036274;28;20124;-82
2022/10/01 05:11:33;;;;;;;14.73;9.15;;;12.30;99.90;;;;;;5054188;28;20057;-82
2022/10/01 05:13:59;;;;;;;13.48;8.63;;;12.40;99.90;;;;;;5035974;28;20459;-83
2022/10/01 05:16:25;;;;;;;14.63;9.85;;;12.40;99.90;;;;;;5035942;28;20024;-82
2022/10/01 05:18:51;;;;;;;11.63;9.43;;;12.30;99.90;;;;;;5037768;28;20025;-83
2022/10/01 05:21:17;;;;;;;12.18;8.88;;;12.30;99.90;;;;;;5040072;28;20491;-82
2022/10/01 05:23:42;;;;;;;15.55;9.73;;;12.30;99.90;;;;;;5057471;28;20358;-83
2022/10/01 05:26:08;;;;;;;12.18;9.55;;;12.30;99.90;;;;;;5039602;28;20028;-82
2022/10/01 05:28:35;;;;;;;12.57;9.48;;;12.40;99.90;;;;;;5039223;28;20033;-82
2022/10/01 05:31:02;;;;;;;11.60;8.93;;;12.40;99.90;;;;;;5039245;28;20029;-82
2022/10/01 05:33:29;;;;;;;14.30;9.27;;;12.40;99.90;;;;;;5039316;28;20055;-83
2022/10/01 05:35:56;;;;;;;11.50;8.27;;;12.40;99.90;;;;;;5039523;28;20025;-82
2022/10/01 05:38:22;;;;;;;11.75;9.30;;;12.40;99.90;;;;;;5039353;28;20032;-81
2022/10/01 05:40:48;;;;;;;12.75;7.70;;;12.40;99.90;;;;;;5039234;28;20423;-75
2022/10/01 05:43:14;;;;;;;10.77;8.18;;;12.40;99.90;;;;;;5038710;28;20420;-75
2022/10/01 05:45:40;;;;;;;11.00;8.45;;;12.50;99.90;;;;;;5056747;28;20096;-75
2022/10/01 05:48:07;;;;;;;11.68;8.45;;;12.50;99.90;;;;;;5038869;28;20052;-77
2022/10/01 05:50:39;;;;;;;12.15;8.52;;;12.50;99.90;;;;;;5038907;28;20384;-77
2022/10/01 05:53:06;;;;;;;9.57;7.95;;;12.60;99.90;;;;;;5038939;28;20037;-78
2022/10/01 05:55:35;;;;;;;14.88;9.00;;;12.60;99.90;;;;;;5038726;28;20044;-76
2022/10/01 05:58:04;;;;;;;11.25;8.32;;;12.60;99.90;;;;;;5038714;28;20025;-77
2022/10/01 06:00:32;;;;;;;11.60;8.82;;;12.70;99.90;;;;;;5038488;28;20032;-77
2022/10/01 06:02:59;;;;;;;11.05;8.50;;;12.70;99.90;;;;;;5038240;28;20056;-77
2022/10/01 06:05:25;;;;;;;10.90;8.00;;;12.80;99.90;;;;;;5056436;28;20064;-77
2022/10/01 06:07:52;;;;;;;11.18;8.50;;;12.80;99.90;;;;;;5038903;28;20539;-78
2022/10/01 06:10:19;;;;;;;12.48;8.75;;;12.90;99.90;;;;;;5038627;28;20385;-74
2022/10/01 06:12:44;;;;;;;12.20;8.20;;;12.90;99.90;;;;;;5056278;28;20115;-76
2022/10/01 06:15:11;;;;;;;11.07;8.10;;;12.90;99.90;;;;;;5038604;28;20492;-78
2022/10/01 06:17:42;;;;;;;11.68;8.80;;;13.00;99.90;;;;;;5038328;28;20032;-75
2022/10/01 06:20:13;;;;;;;8.35;7.45;;;13.00;99.90;;;;;;5056194;28;20021;-78
2022/10/01 06:22:39;;;;;;;10.95;7.78;;;13.10;99.90;;;;;;5056430;28;20056;-79
2022/10/01 06:25:06;;;;;;;14.63;8.50;;;13.20;99.90;;;;;;5038420;28;20381;-78
2022/10/01 06:27:31;;;;;;;8.25;7.40;;;13.20;99.90;;;;;;5038263;28;20025;-77
2022/10/01 06:29:57;;;;;;;8.23;6.75;;;13.20;99.90;;;;;;5054646;28;20036;-77
2022/10/01 06:32:23;;;;;;;11.68;7.78;;;13.30;99.90;;;;;;5055890;28;20108;-76
2022/10/01 06:34:48;;;;;;;12.93;7.63;;;13.30;99.90;;;;;;5038058;28;20064;-75
2022/10/01 06:37:14;;;;;;;9.75;7.18;;;13.40;99.90;;;;;;5055858;28;20127;-75
2022/10/01 06:39:40;;;;;;;11.82;8.00;;;13.40;99.90;;;;;;5038057;28;20033;-78
2022/10/01 06:42:06;;;;;;;8.93;6.82;;;13.40;99.90;;;;;;5038494;28;20039;-80
2022/10/01 06:44:31;;;;;;;14.63;7.25;;;13.30;99.90;;;;;;5038563;28;20453;-81
2022/10/01 06:46:57;;;;;;;8.98;6.90;;;13.40;99.90;;;;;;5056394;28;20091;-79
2022/10/01 06:49:23;;;;;;;9.75;7.03;;;13.40;99.90;;;;;;5037870;28;20451;-80
2022/10/01 06:54:33;;;;;;;10.23;6.82;;;13.50;99.90;;;;;;5055361;28;20078;-57
2022/10/01 06:56:58;;;;;;;7.95;6.68;;;13.70;99.90;;;;;;5038481;28;20025;-78
2022/10/01 06:59:25;;;;;;;10.60;6.80;;;13.80;99.90;;;;;;5055563;28;20096;-78
2022/10/01 07:01:52;;;;;;;10.35;7.00;;;13.90;99.90;;;;;;5037708;28;20116;-80
2022/10/01 07:04:19;;;;;;;7.97;6.07;;;14.00;99.90;;;;;;5037161;28;20044;-80
2022/10/01 07:06:44;;;;;;;7.55;6.20;;;14.10;99.90;;;;;;5037460;28;20025;-79
2022/10/01 07:09:10;;;;;;;7.28;5.95;;;14.10;99.90;;;;;;5053265;28;20108;-81
2022/10/01 07:11:40;;;;;;;9.05;6.43;;;14.10;99.90;;;;;;5037692;28;20116;-80
2022/10/01 07:14:07;;;;;;;6.10;5.40;;;14.20;99.90;;;;;;5037604;28;20029;-82
2022/10/01 07:16:33;;;;;;;6.35;5.70;;;14.30;99.90;;;;;;5037537;28;20112;-82
2022/10/01 07:18:58;;;;;;;10.43;5.90;;;14.40;99.90;;;;;;5055226;28;20103;-80
2022/10/01 07:21:24;;;;;;;9.82;5.93;;;14.30;99.90;;;;;;5055417;28;20029;-82
2022/10/01 07:23:50;;;;;;;6.95;5.40;;;14.30;99.90;;;;;;5038283;28;20021;-85
2022/10/01 07:26:16;;;;;;;8.00;6.07;;;14.40;99.90;;;;;;5054206;28;20056;-80
2022/10/01 07:28:43;;;;;;;8.32;5.50;;;14.40;99.90;;;;;;5037155;28;20027;-79
2022/10/01 07:31:10;;;;;;;7.10;5.70;;;14.40;99.90;;;;;;5037210;28;20468;-79
2022/10/01 07:33:37;;;;;;;8.52;6.30;;;14.40;99.90;;;;;;5036853;28;20031;-77
2022/10/01 07:36:04;;;;;;;6.72;5.68;;;14.50;99.90;;;;;;5036405;28;20029;-78
2022/10/01 07:38:32;;;;;;;6.53;5.15;;;14.60;99.90;;;;;;5036754;28;20036;-75
2022/10/01 07:40:58;;;;;;;8.13;5.35;;;14.70;99.90;;;;;;5053873;28;20025;-73
2022/10/01 07:43:24;;;;;;;6.43;5.45;;;14.80;99.90;;;;;;5054576;28;20024;-73
2022/10/01 07:45:53;;;;;;;5.47;4.78;;;14.90;99.90;;;;;;5054350;28;20178;-73
2022/10/01 07:48:19;;;;;;;7.82;5.22;;;15.10;99.90;;;;;;5036974;28;20032;-73
2022/10/01 07:50:45;;;;;;;12.10;5.10;;;15.10;99.90;;;;;;5036289;28;20025;-74
2022/10/01 07:53:11;;;;;;;10.75;5.20;;;15.30;99.90;;;;;;5054313;28;20100;-74
2022/10/01 07:55:37;;;;;;;5.22;4.55;;;15.40;99.90;;;;;;5036435;28;20024;-74
2022/10/01 07:58:03;;;;;;;6.82;4.20;;;15.40;99.90;;;;;;5053964;28;20488;-74
2022/10/01 08:00:32;;;;;;;6.00;4.80;;;15.50;99.90;;;;;;5036414;28;20029;-73
2022/10/01 08:02:58;;;;;;;6.43;4.50;;;15.50;99.90;;;;;;5036106;28;20556;-75
2022/10/01 08:05:29;;;;;;;6.15;4.65;;;15.60;99.90;;;;;;5054152;28;20092;-75
2022/10/01 08:08:07;;;;;;;7.25;5.20;;;15.60;99.90;;;;;;5053892;28;20017;-74
2022/10/01 08:10:34;;;;;;;9.05;4.75;;;15.70;99.90;;;;;;5036185;28;20051;-74
2022/10/01 08:13:04;;;;;;;4.97;3.92;;;15.70;99.90;;;;;;5053970;28;20112;-74
2022/10/01 08:15:30;;;;;;;5.93;4.25;;;15.80;99.90;;;;;;5036282;28;20047;-74
2022/10/01 08:18:00;;;;;;;4.43;4.03;;;15.90;99.90;;;;;;5035747;28;20465;-74
2022/10/01 08:20:27;;;;;;;5.18;4.40;;;15.90;99.90;;;;;;5035723;28;20377;-74
2022/10/01 08:22:53;;;;;;;4.68;4.18;;;15.90;99.90;;;;;;5035797;28;20032;-74
2022/10/01 08:25:18;;;;;;;5.90;4.45;;;15.90;99.90;;;;;;5035963;28;20441;-74
2022/10/01 08:27:44;;;;;;;6.70;4.68;;;16.00;99.90;;;;;;5053510;28;20043;-76
2022/10/01 08:30:10;;;;;;;7.53;4.45;;;16.00;99.90;;;;;;5036054;28;20115;-74
2022/10/01 08:32:36;;;;;;;5.55;4.05;;;16.00;99.90;;;;;;5053740;28;20171;-74
2022/10/01 08:35:03;;;;;;;5.70;3.95;;;16.00;99.90;;;;;;5053773;28;20068;-74
2022/10/01 08:37:29;;;;;;;6.82;3.90;;;15.90;99.90;;;;;;5053715;28;20369;-74
2022/10/01 08:39:55;;;;;;;5.72;4.32;;;15.90;99.90;;;;;;5053443;28;20036;-71
2022/10/01 08:42:42;;;;;;;9.20;4.85;;;15.90;99.90;;;;;;5054001;28;20130;-74
2022/10/01 08:45:16;;;;;;;5.00;3.75;;;15.90;99.90;;;;;;5036103;28;20083;-73
2022/10/01 08:47:54;;;;;;;4.68;4.18;;;15.90;99.90;;;;;;5054024;28;20481;-74
2022/10/01 08:50:31;;;;;;;4.90;3.05;;;16.00;99.90;;;;;;5036290;28;20022;-73
2022/10/01 08:53:01;;;;;;;3.72;3.42;;;15.90;99.90;;;;;;5054125;28;20174;-76
2022/10/01 08:55:35;;;;;;;3.45;3.15;;;15.90;99.90;;;;;;5039942;28;20025;-70
2022/10/01 08:58:03;;;;;;;4.93;3.22;;;15.90;99.90;;;;;;5057745;28;20025;-71
2022/10/01 09:00:31;;;;;;;3.85;3.42;;;16.00;99.90;;;;;;5039446;28;20021;-70
2022/10/01 09:03:02;;;;;;;5.68;3.47;;;15.90;99.90;;;;;;5057322;28;20045;-70
2022/10/01 09:05:58;;;;;;;4.57;3.30;;;15.80;99.90;;;;;;5057935;28;20036;-70
2022/10/01 09:08:45;;;;;;;5.32;3.50;;;15.70;99.90;;;;;;5039879;28;20484;-70
2022/10/01 09:11:20;;;;;;;3.47;2.97;;;15.80;99.90;;;;;;5057381;28;20029;-70
2022/10/01 09:13:50;;;;;;;7.78;3.72;;;15.70;99.90;;;;;;5057567;28;20049;-71
2022/10/01 09:16:40;;;;;;;4.88;3.00;;;15.80;99.90;;;;;;5039983;28;20094;-70
2022/10/01 09:19:38;;;;;;;4.68;3.55;;;15.80;99.90;;;;;;5057659;28;20373;-70
2022/10/01 09:22:28;;;;;;;6.60;3.97;;;15.90;99.90;;;;;;5039154;28;20087;-70
2022/10/01 09:25:09;;;;;;;5.05;3.25;;;15.90;99.90;;;;;;5057012;28;20017;-70
2022/10/01 09:27:37;;;;;;;5.72;3.35;;;15.90;99.90;;;;;;5039233;28;20112;-70
2022/10/01 09:30:17;;;;;;;4.90;3.38;;;15.80;99.90;;;;;;5057470;28;20033;-70
2022/10/01 09:33:15;;;;;;;3.42;3.13;;;15.90;99.90;;;;;;5056958;28;20485;-70
2022/10/01 09:35:43;;;;;;;5.18;3.13;;;15.90;99.90;;;;;;4952349;28;20090;-70
2022/10/01 09:38:17;;;;;;;3.17;2.88;;;15.90;99.90;;;;;;5056940;28;20108;-70
2022/10/01 09:40:55;;;;;;;2.95;2.65;;;16.00;99.90;;;;;;5056892;28;20071;-70
2022/10/01 09:43:23;;;;;;;2.92;2.63;;;16.00;99.90;;;;;;5038895;28;20033;-70
2022/10/01 09:45:51;;;;;;;4.53;3.30;;;15.90;99.90;;;;;;5056724;28;20025;-70
2022/10/01 09:48:29;;;;;;;4.23;2.97;;;16.00;99.90;;;;;;5056758;28;20021;-70
2022/10/01 09:51:00;;;;;;;7.85;2.85;;;16.00;99.90;;;;;;5056645;28;20052;-70
2022/10/01 09:53:58;;;;;;;2.70;2.50;;;16.00;99.90;;;;;;5056896;28;20021;-70
2022/10/01 09:56:37;;;;;;;4.03;2.60;;;16.00;99.90;;;;;;5038024;28;20033;-70
2022/10/01 09:59:14;;;;;;;6.35;3.10;;;16.00;99.90;;;;;;5038976;28;20064;-70
2022/10/01 10:01:46;;;;;;;3.38;3.08;;;16.00;99.90;;;;;;5056293;28;20476;-70
2022/10/01 10:04:22;;;;;;;5.10;3.08;;;16.10;99.90;;;;;;5037997;28;20044;-70
2022/10/01 10:06:49;;;;;;;4.45;2.63;;;16.00;99.90;;;;;;5056462;28;20465;-70
2022/10/01 10:09:27;;;;;;;9.45;2.92;;;16.00;99.90;;;;;;5056329;28;20032;-70
2022/10/01 10:11:55;;;;;;;2.65;2.45;;;16.00;99.90;;;;;;5056176;28;20032;-71
2022/10/01 10:14:32;;;;;;;3.10;2.80;;;16.00;99.90;;;;;;5056188;28;20029;-70
2022/10/01 10:17:05;;;;;;;4.45;2.58;;;16.10;99.90;;;;;;5056061;28;20036;-71
2022/10/01 10:19:32;;;;;;;4.88;2.45;;;16.20;99.90;;;;;;5038560;28;20143;-71
2022/10/01 10:22:11;;;;;;;3.17;2.50;;;16.30;99.90;;;;;;5056180;28;20040;-70
2022/10/01 10:24:37;;;;;;;2.92;2.33;;;16.40;99.90;;;;;;5056354;28;20091;-70
2022/10/01 10:27:05;;;;;;;3.60;2.38;;;16.50;99.90;;;;;;5055919;28;20401;-70
2022/10/01 10:29:35;;;;;;;2.43;2.23;;;16.70;99.90;;;;;;5056210;28;20075;-71
2022/10/01 10:32:24;;;;;;;4.47;2.10;;;16.80;99.90;;;;;;5055731;28;20032;-70
2022/10/01 10:34:51;;;;;;;2.63;2.13;;;17.00;99.90;;;;;;5055873;28;20404;-71
2022/10/01 10:37:27;;;;;;;2.70;1.80;;;17.10;99.90;;;;;;5038086;28;20033;-70
2022/10/01 10:39:53;;;;;;;7.03;1.85;;;17.30;99.90;;;;;;5038253;28;20025;-71
2022/10/01 10:42:21;;;;;;;2.20;2.00;;;17.40;99.90;;;;;;5038444;28;20114;-70
2022/10/01 10:44:50;;;;;;;1.88;1.77;;;17.40;99.90;;;;;;5055701;28;20468;-70
2022/10/01 10:47:19;;;;;;;3.33;1.70;;;17.50;99.90;;;;;;5037831;28;20029;-70
2022/10/01 10:49:57;;;;;;;4.22;1.83;;;17.50;99.90;;;;;;5037667;28;20049;-70
2022/10/01 10:52:31;;;;;;;2.65;1.80;;;17.60;99.90;;;;;;5055598;28;20037;-71
2022/10/01 10:54:58;;;;;;;3.88;1.70;;;17.70;99.90;;;;;;5037345;28;20055;-72
2022/10/01 10:57:28;;;;;;;4.70;1.70;;;17.70;99.90;;;;;;5055348;28;20029;-71
2022/10/01 11:00:14;;;;;;;2.15;1.95;;;17.70;99.90;;;;;;5037422;28;20025;-71
2022/10/01 11:02:52;;;;;;;1.63;1.50;;;17.60;99.90;;;;;;5037405;28;20033;-71
2022/10/01 11:05:24;;;;;;;3.75;1.80;;;17.70;99.90;;;;;;5055660;28;20096;-71
2022/10/01 11:07:53;;;;;;;1.73;1.63;;;17.80;99.90;;;;;;5055196;28;20036;-70
2022/10/01 11:10:30;;;;;;;4.68;1.23;;;18.00;99.90;;;;;;5037228;28;20032;-70
2022/10/01 11:13:34;;;;;;;2.65;1.27;;;18.40;99.90;;;;;;5055019;28;20029;-71
2022/10/01 11:16:06;;;;;;;1.92;1.35;;;18.90;99.90;;;;;;5036668;28;20067;-71
2022/10/01 11:18:48;;;;;;;2.13;1.40;;;19.30;99.90;;;;;;5037143;28;20025;-71
2022/10/01 11:21:47;;;;;;;1.80;1.70;;;19.60;99.90;;;;;;5055696;28;20040;-71
2022/10/01 11:24:44;;;;;;;1.25;1.10;;;19.90;99.90;;;;;;4983574;28;20480;-71
2022/10/01 11:27:22;;;;;;;1.67;1.10;;;20.00;99.90;;;;;;5036699;28;20472;-71
2022/10/01 11:30:05;;;;;;;1.42;1.10;;;20.00;99.90;;;;;;5055060;28;20457;-71
2022/10/01 11:32:52;;;;;;;1.00;0.90;;;20.10;99.20;;;;;;5054696;28;20029;-71
2022/10/01 11:35:27;;;;;;;0.77;0.77;;;20.10;99.00;;;;;;5036582;28;20032;-71
2022/10/01 11:38:16;;;;;;;1.17;0.93;;;19.90;98.20;;;;;;5054691;28;20112;-71
2022/10/01 11:40:42;;;;;;;;;;;19.80;98.90;;;;;;5042261;28;20088;-71
2022/10/01 11:43:17;;;;;;;0.90;0.90;;;19.70;98.50;;;;;;5036606;28;20352;-71
2022/10/01 11:45:47;;;;;;;0.82;0.82;;;19.60;99.20;;;;;;5036560;28;20029;-71
2022/10/01 11:48:24;;;;;;;2.10;0.80;;;19.50;99.20;;;;;;5054691;28;20112;-71
2022/10/01 11:50:54;;;;;;;1.00;0.70;;;19.30;99.10;;;;;;5054357;28;20378;-71
2022/10/01 11:53:32;;;;;;;0.90;0.70;;;19.20;99.90;;;;;;5054242;28;20075;-71
2022/10/01 11:59:18;;;;;;;0.80;0.80;;;18.90;99.30;;;;;;5054062;28;20413;-71
2022/10/01 12:02:15;;;;;;;1.38;0.75;;;18.60;99.90;;;;;;5036367;28;20408;-71
2022/10/01 12:05:15;;;;;;;2.25;0.80;;;18.80;99.90;;;;;;5036120;28;20045;-71
2022/10/01 12:08:15;;;;;;;2.88;1.00;;;18.90;99.90;;;;;;5036204;28;20560;-71
2022/10/01 12:10:49;;;;;;;3.08;1.20;;;18.80;99.90;;;;;;5053840;28;20043;-71
2022/10/01 12:13:15;;;;;;;1.25;1.23;;;18.80;99.90;;;;;;5053857;28;20029;-71
2022/10/01 12:15:53;;;;;;;2.45;1.20;;;18.80;99.90;;;;;;5053713;28;20496;-71
2022/10/01 12:18:30;;;;;;;1.33;1.30;;;18.60;99.90;;;;;;5054106;28;20354;-71
2022/10/01 12:20:59;;;;;;;2.15;1.30;;;18.60;99.90;;;;;;5053885;28;20071;-71
2022/10/01 12:23:33;;;;;;;2.05;1.60;;;18.90;99.90;;;;;;5053536;28;20063;-71
2022/10/01 12:26:26;;;;;;;1.38;1.27;;;19.30;99.90;;;;;;5036007;28;20433;-71
2022/10/01 12:29:17;;;;;;;2.00;1.58;;;19.40;99.90;;;;;;5053803;28;20025;-72
2022/10/01 12:32:01;;;;;;;2.38;1.70;;;19.30;99.90;;;;;;5035784;28;20423;-71
2022/10/01 12:35:01;;;;;;;1.63;1.52;;;19.10;99.90;;;;;;5036287;28;20037;-69
2022/10/01 12:37:58;;;;;;;1.70;1.60;;;18.70;99.90;;;;;;5035898;28;20033;-70
2022/10/01 12:40:29;;;;;;;2.40;2.00;;;18.90;99.90;;;;;;5035739;28;20044;-69
2022/10/01 12:43:14;;;;;;;2.38;1.20;;;18.80;99.90;;;;;;5053714;28;20029;-69
2022/10/01 12:46:10;;;;;;;2.25;1.10;;;18.90;99.90;;;;;;5035762;28;20025;-69
2022/10/01 12:48:42;;;;;;;3.40;1.60;;;18.90;99.90;;;;;;5035693;28;20059;-68
2022/10/01 12:51:31;;;;;;;2.53;1.08;;;18.60;99.90;;;;;;5053135;28;20032;-68
2022/10/01 12:54:03;;;;;;;1.65;1.30;;;18.70;99.90;;;;;;5053593;28;20087;-70
2022/10/01 12:56:37;;;;;;;3.28;1.33;;;18.90;99.90;;;;;;5053606;28;20083;-71
2022/10/01 12:59:12;;;;;;;1.83;1.20;;;18.90;99.60;;;;;;5053481;28;20104;-70
2022/10/01 13:01:52;;;;;;;3.00;1.17;;;18.80;99.20;;;;;;5053152;28;20149;-72
2022/10/01 13:04:55;;;;;;;5.60;1.58;;;18.90;99.90;;;;;;5035156;28;20183;-70
2022/10/01 13:07:39;;;;;;;1.58;1.48;;;18.90;99.90;;;;;;5035904;28;20025;-70
2022/10/01 13:10:11;;;;;;;1.60;1.50;;;18.90;99.60;;;;;;5053289;28;20454;-71
2022/10/01 13:12:49;;;;;;;3.80;1.65;;;18.60;99.80;;;;;;5035865;28;20037;-70